Time;durP1;ratioP1;P1;durP2;ratioP2;P2;SDS_P1;SDS_P2;PMS_P1;PMS_P2;Temp;Humidity;BMP_temperature;BMP_pressure;BME280_temperature;BME280_humidity;BME280_pressure;Samples;Min_cycle;Max_cycle;Signal;HPM_P1;HPM_P2
2022/08/31 00:04:04;;;;;;;5.45;2.90;;;;;;;15.78;86.58;102208.69;10501323;28;20114;-69
2022/08/31 00:09:05;;;;;;;5.43;2.95;;;;;;;15.73;87.76;102203.84;10501132;28;20036;-69
2022/08/31 00:14:06;;;;;;;3.25;2.20;;;;;;;15.75;88.95;102199.00;10483184;28;20419;-69
2022/08/31 00:19:07;;;;;;;2.22;2.10;;;;;;;15.70;89.82;102193.31;10500737;28;20083;-69
2022/08/31 00:24:07;;;;;;;2.53;2.33;;;;;;;15.74;89.21;102207.41;10501794;28;20124;-69
2022/08/31 00:29:08;;;;;;;2.58;2.38;;;;;;;15.74;87.45;102207.41;10482779;28;20064;-69
2022/08/31 00:34:08;;;;;;;2.00;1.90;;;;;;;15.75;90.92;102196.28;10499580;28;20064;-70
2022/08/31 00:39:09;;;;;;;3.70;2.70;;;;;;;15.83;87.96;102194.44;10498663;28;20041;-70
2022/08/31 00:44:10;;;;;;;2.47;2.28;;;;;;;15.78;86.93;102195.88;10499014;28;20032;-69
2022/08/31 00:49:17;;;;;;;2.20;2.05;;;;;;;15.77;87.51;102198.81;10481278;28;20029;-69
2022/08/31 00:54:19;;;;;;;2.45;2.13;;;;;;;15.77;87.72;102207.00;10499450;28;20025;-69
2022/08/31 00:59:21;;;;;;;2.00;1.90;;;;;;;15.65;86.38;102198.50;10498811;28;20028;-70
2022/08/31 01:04:21;;;;;;;1.70;1.60;;;;;;;15.71;86.81;102210.53;10498722;28;20039;-68
2022/08/31 01:09:22;;;;;;;1.85;1.75;;;;;;;15.67;88.19;102206.53;10498510;28;20455;-70
2022/08/31 01:14:22;;;;;;;2.88;2.22;;;;;;;15.61;87.66;102197.22;10481729;28;20059;-69
2022/08/31 01:19:43;;;;;;;3.65;2.17;;;;;;;15.59;86.76;102202.00;10498221;28;20032;-70
2022/08/31 01:24:44;;;;;;;2.00;1.73;;;;;;;15.55;86.53;102198.84;10497505;28;20025;-70
2022/08/31 01:29:44;;;;;;;1.52;1.45;;;;;;;15.46;86.49;102194.56;10498605;28;20085;-70
2022/08/31 01:34:44;;;;;;;3.47;2.53;;;;;;;15.48;83.95;102197.94;10500474;28;20085;-70
2022/08/31 01:39:45;;;;;;;2.65;2.03;;;;;;;15.37;84.03;102184.00;10499830;28;20033;-69
2022/08/31 01:44:45;;;;;;;1.92;1.83;;;;;;;15.40;86.46;102199.97;10498555;28;20135;-70
2022/08/31 01:49:46;;;;;;;1.55;1.40;;;;;;;15.40;85.18;102194.53;10497930;28;20051;-69
2022/08/31 01:54:46;;;;;;;1.90;1.80;;;;;;;15.36;83.71;102202.25;10498217;28;20024;-69
2022/08/31 01:59:46;;;;;;;3.35;1.40;;;;;;;15.28;85.21;102208.72;10480868;28;20076;-69
2022/08/31 02:04:47;;;;;;;3.03;2.15;;;;;;;15.29;85.96;102206.81;10500268;28;20044;-69
2022/08/31 02:09:47;;;;;;;1.40;1.35;;;;;;;15.29;84.22;102209.56;10501860;28;20087;-70
2022/08/31 02:14:48;;;;;;;2.15;1.80;;;;;;;15.23;83.42;102207.63;10506948;28;20450;-69
2022/08/31 02:19:48;;;;;;;1.88;1.50;;;;;;;15.18;84.02;102207.34;10506907;28;20036;-69
2022/08/31 02:24:48;;;;;;;1.60;1.48;;;;;;;15.10;84.42;102206.44;10507693;28;20033;-70
2022/08/31 02:29:49;;;;;;;6.07;1.77;;;;;;;15.06;84.45;102205.16;10507230;28;20086;-70
2022/08/31 02:34:49;;;;;;;2.47;1.58;;;;;;;14.98;85.53;102198.97;10508045;28;20435;-69
2022/08/31 02:39:50;;;;;;;5.32;1.98;;;;;;;14.96;86.93;102203.78;10509828;28;20119;-69
2022/08/31 02:44:50;;;;;;;1.98;1.88;;;;;;;14.92;87.84;102199.75;10504339;28;20110;-69
2022/08/31 02:49:51;;;;;;;1.13;1.13;;;;;;;14.95;86.06;102202.94;10505513;28;20075;-69
2022/08/31 02:54:51;;;;;;;5.63;1.80;;;;;;;14.94;86.92;102209.44;10504419;28;20047;-70
2022/08/31 02:59:51;;;;;;;1.90;1.80;;;;;;;14.92;87.08;102205.22;10504348;28;20506;-70
2022/08/31 03:04:52;;;;;;;2.08;1.90;;;;;;;14.88;86.59;102208.31;10502946;28;20033;-69
2022/08/31 03:09:53;;;;;;;7.43;1.80;;;;;;;14.82;87.25;102209.09;10503440;28;20498;-70
2022/08/31 03:14:53;;;;;;;1.95;1.83;;;;;;;14.81;87.13;102206.59;10503612;28;20434;-69
2022/08/31 03:19:59;;;;;;;2.05;1.85;;;;;;;14.69;86.13;102203.50;10502415;28;20139;-68
2022/08/31 03:25:00;;;;;;;1.58;1.48;;;;;;;14.71;87.00;102216.94;10501726;28;20384;-68
2022/08/31 03:30:00;;;;;;;2.13;1.90;;;;;;;14.68;86.42;102214.59;10484728;28;20047;-69
2022/08/31 03:35:01;;;;;;;5.60;1.90;;;;;;;14.61;87.69;102215.38;10502315;28;20036;-70
2022/08/31 03:40:02;;;;;;;4.80;2.45;;;;;;;14.62;88.64;102218.94;10501514;28;20492;-69
2022/08/31 03:45:03;;;;;;;2.33;1.98;;;;;;;14.62;88.73;102222.53;10483663;28;20463;-69
2022/08/31 03:50:04;;;;;;;3.03;2.00;;;;;;;14.52;87.23;102210.25;10501233;28;20036;-69
2022/08/31 03:55:05;;;;;;;2.05;1.85;;;;;;;14.53;88.05;102234.56;10500554;28;20035;-70
2022/08/31 04:00:06;;;;;;;1.58;1.48;;;;;;;14.56;88.09;102234.19;10485961;28;20028;-70
2022/08/31 04:05:07;;;;;;;2.85;1.90;;;;;;;14.51;89.55;102238.53;10502636;28;20036;-69
2022/08/31 04:10:08;;;;;;;3.05;1.70;;;;;;;14.48;88.74;102227.97;10502764;28;20032;-69
2022/08/31 04:15:09;;;;;;;1.63;1.50;;;;;;;14.55;88.13;102232.50;10483598;28;20076;-70
2022/08/31 04:20:09;;;;;;;2.17;1.92;;;;;;;14.55;89.09;102239.81;10500432;28;20475;-69
2022/08/31 04:25:10;;;;;;;2.55;2.35;;;;;;;14.52;88.83;102243.78;10483982;28;20439;-69
2022/08/31 04:30:11;;;;;;;5.30;1.63;;;;;;;14.55;87.13;102237.97;10499925;28;20415;-70
2022/08/31 04:35:11;;;;;;;3.40;1.60;;;;;;;14.56;87.65;102242.38;10499762;28;20105;-70
2022/08/31 04:40:18;;;;;;;5.57;1.98;;;;;;;14.55;87.36;102240.69;10497782;28;20036;-70
2022/08/31 04:45:18;;;;;;;;;;;;;;;14.57;87.04;102237.75;10499709;28;20124;-69
2022/08/31 04:50:19;;;;;;;2.53;1.85;;;;;;;14.52;87.17;102238.34;10500584;28;20003;-71
2022/08/31 04:55:19;;;;;;;2.10;1.92;;;;;;;14.60;85.99;102237.38;10497802;28;20029;-69
2022/08/31 05:00:20;;;;;;;1.55;1.35;;;;;;;14.54;85.46;102244.44;10499769;28;20468;-69
2022/08/31 05:05:21;;;;;;;1.77;1.67;;;;;;;14.60;84.00;102245.56;10499077;28;20123;-69
2022/08/31 05:10:23;;;;;;;11.95;1.80;;;;;;;14.61;83.51;102249.97;10498927;28;20042;-69
2022/08/31 05:15:23;;;;;;;2.90;1.25;;;;;;;14.59;82.44;102247.44;10499102;28;20044;-70
2022/08/31 05:20:25;;;;;;;1.35;1.20;;;;;;;14.59;82.32;102252.06;10497339;28;20056;-69
2022/08/31 05:25:26;;;;;;;1.95;1.83;;;;;;;14.71;81.23;102257.84;10498298;28;20045;-69
2022/08/31 05:30:26;;;;;;;1.75;1.65;;;;;;;14.73;80.21;102255.78;10498910;28;20044;-71
2022/08/31 05:35:27;;;;;;;4.10;1.60;;;;;;;14.83;78.64;102259.03;10498207;28;20435;-70
2022/08/31 05:40:27;;;;;;;1.70;1.30;;;;;;;14.87;78.45;102249.44;10498077;28;20036;-70
2022/08/31 05:45:28;;;;;;;1.27;1.10;;;;;;;14.83;79.03;102250.84;10497086;28;20041;-68
2022/08/31 05:50:28;;;;;;;1.58;1.48;;;;;;;15.21;79.36;102258.81;10497739;28;20029;-69
2022/08/31 05:55:30;;;;;;;1.00;0.95;;;;;;;16.03;77.33;102253.63;10495765;28;20526;-69
2022/08/31 06:00:31;;;;;;;1.60;1.40;;;;;;;16.66;75.66;102258.13;10496688;28;20040;-69
2022/08/31 06:05:31;;;;;;;1.23;1.10;;;;;;;17.31;71.67;102258.53;10496914;28;20056;-69
2022/08/31 06:10:31;;;;;;;1.98;1.40;;;;;;;18.09;71.18;102266.91;10504501;28;20047;-69
2022/08/31 06:15:32;;;;;;;2.53;1.52;;;;;;;18.60;67.80;102266.13;10504740;28;20392;-68
2022/08/31 06:20:36;;;;;;;0.95;0.95;;;;;;;19.16;67.38;102267.34;10505107;28;20041;-70
2022/08/31 06:25:37;;;;;;;1.25;1.15;;;;;;;19.63;64.34;102274.16;10521716;28;20452;-68
2022/08/31 06:30:38;;;;;;;1.95;1.45;;;;;;;19.74;62.79;102264.38;10506194;28;20033;-69
2022/08/31 06:35:39;;;;;;;3.28;1.70;;;;;;;20.20;63.29;102265.81;10504710;28;20119;-74
2022/08/31 06:40:39;;;;;;;1.10;1.02;;;;;;;20.41;59.48;102270.00;10504404;28;20040;-75
2022/08/31 06:45:40;;;;;;;0.88;0.88;;;;;;;20.55;58.00;102268.81;10502825;28;20094;-75
2022/08/31 06:50:40;;;;;;;1.30;1.20;;;;;;;20.77;58.36;102271.06;10503100;28;20418;-73
2022/08/31 06:55:41;;;;;;;1.13;1.08;;;;;;;21.44;54.98;102269.06;10484673;28;20032;-74
2022/08/31 07:00:41;;;;;;;1.98;1.80;;;;;;;21.98;54.86;102269.78;10504130;28;20545;-71
2022/08/31 07:05:43;;;;;;;1.35;1.35;;;;;;;22.18;54.13;102276.91;10502044;28;20055;-69
2022/08/31 07:10:43;;;;;;;4.35;0.90;;;;;;;22.77;54.76;102287.81;10486753;28;20037;-68
2022/08/31 07:15:44;;;;;;;1.00;1.00;;;;;;;23.13;51.99;102286.59;10501259;28;20384;-69
2022/08/31 07:20:44;;;;;;;1.95;1.17;;;;;;;23.25;52.24;102284.59;10502011;28;20124;-70
2022/08/31 07:25:45;;;;;;;2.38;1.83;;;;;;;23.06;51.40;102286.72;10500899;28;20074;-69
2022/08/31 07:30:48;;;;;;;1.58;1.20;;;;;;;22.72;51.14;102286.63;10502324;28;20044;-69
2022/08/31 07:35:49;;;;;;;4.38;1.23;;;;;;;23.34;51.12;102296.94;10501843;28;20053;-71
2022/08/31 07:46:08;;;;;;;1.10;1.10;;;;;;;23.50;47.80;102291.66;10501579;28;20037;-70
2022/08/31 07:51:09;;;;;;;1.98;1.30;;;;;;;23.39;47.49;102290.66;10500280;28;20036;-69
2022/08/31 07:56:09;;;;;;;1.10;1.10;;;;;;;23.73;47.54;102283.22;10467607;28;20036;-71
2022/08/31 08:01:10;;;;;;;0.85;0.85;;;;;;;24.17;46.18;102286.09;10482958;28;20036;-70
2022/08/31 08:06:14;;;;;;;1.40;1.35;;;;;;;24.20;45.09;102296.66;10499282;28;20040;-70
2022/08/31 08:11:18;;;;;;;1.00;1.00;;;;;;;24.69;45.88;102298.72;10501115;28;20426;-69
2022/08/31 08:16:18;;;;;;;0.75;0.75;;;;;;;24.58;41.45;102306.06;10497886;28;20048;-70
2022/08/31 08:21:18;;;;;;;2.45;1.88;;;;;;;24.84;42.28;102296.13;10499841;28;20044;-71
2022/08/31 08:26:19;;;;;;;5.57;1.35;;;;;;;25.25;41.40;102289.09;10500010;28;20029;-68
2022/08/31 08:31:21;;;;;;;1.20;1.10;;;;;;;25.73;42.69;102300.34;10500226;28;20134;-68
2022/08/31 08:36:22;;;;;;;0.95;0.95;;;;;;;26.20;41.65;102305.97;10499468;28;20119;-69
2022/08/31 08:41:24;;;;;;;0.95;0.95;;;;;;;26.11;39.84;102299.25;10483126;28;20032;-70
2022/08/31 08:46:53;;;;;;;1.17;1.17;;;;;;;25.79;39.78;102301.22;10498655;28;20041;-70
2022/08/31 08:51:56;;;;;;;1.60;1.20;;;;;;;25.62;40.06;102298.56;10485202;28;20120;-68
2022/08/31 08:56:58;;;;;;;1.08;1.08;;;;;;;25.38;39.40;102310.03;10482656;28;20036;-69
2022/08/31 09:02:03;;;;;;;1.15;1.15;;;;;;;25.14;40.13;102311.44;10499485;28;20363;-70
2022/08/31 09:07:25;;;;;;;0.75;0.75;;;;;;;25.55;39.52;102323.75;10482176;28;20028;-68
2022/08/31 09:12:29;;;;;;;1.65;1.35;;;;;;;25.57;38.59;102315.19;10497766;28;20135;-68
2022/08/31 09:17:52;;;;;;;1.75;1.10;;;;;;;25.34;39.35;102316.38;10499128;28;20024;-69
2022/08/31 09:22:55;;;;;;;1.17;1.17;;;;;;;25.32;40.02;102311.06;10497151;28;20020;-69
2022/08/31 09:27:58;;;;;;;1.63;1.20;;;;;;;26.10;41.68;102305.91;10498046;28;20464;-69
2022/08/31 09:32:59;;;;;;;1.67;1.58;;;;;;;26.51;37.12;102313.63;10496795;28;20032;-68
2022/08/31 09:38:01;;;;;;;1.73;1.58;;;;;;;26.09;39.06;102303.38;10498295;28;20060;-67
2022/08/31 09:43:06;;;;;;;1.55;1.45;;;;;;;26.51;38.99;102306.13;10484069;28;20430;-68
2022/08/31 09:48:06;;;;;;;1.42;1.42;;;;;;;26.55;41.31;102303.69;10504220;28;20039;-68
2022/08/31 09:58:32;;;;;;;2.03;1.73;;;;;;;26.27;38.43;102296.56;10504652;28;20040;-69
2022/08/31 10:03:37;;;;;;;1.75;1.65;;;;;;;25.57;39.02;102293.84;10506082;28;20380;-69
2022/08/31 10:08:56;;;;;;;11.18;1.75;;;;;;;26.14;40.91;102287.59;10505295;28;20409;-69
2022/08/31 10:14:08;;;;;;;0.95;0.95;;;;;;;26.73;36.19;102288.44;10505073;28;20111;-67
2022/08/31 10:19:12;;;;;;;2.15;1.88;;;;;;;25.79;37.82;102285.41;10506196;28;20039;-69
2022/08/31 10:24:27;;;;;;;1.73;1.63;;;;;;;26.01;37.63;102265.88;10503804;28;20040;-69
2022/08/31 10:29:32;;;;;;;1.17;1.17;;;;;;;26.30;37.64;102262.69;10505065;28;20063;-71
2022/08/31 10:39:54;;;;;;;1.25;1.13;;;;;;;26.15;38.22;102267.06;10504766;28;20041;-69
2022/08/31 10:45:00;;;;;;;1.40;1.30;;;;;;;27.08;38.39;102257.94;10502985;28;20028;-69
2022/08/31 10:50:03;;;;;;;2.17;1.55;;;;;;;27.45;36.97;102251.34;10502452;28;20025;-68
2022/08/31 10:55:36;;;;;;;3.30;1.60;;;;;;;27.51;38.12;102241.03;10484848;28;20131;-68
2022/08/31 11:00:51;;;;;;;4.45;1.77;;;;;;;27.36;36.07;102258.56;10503284;28;20032;-69
2022/08/31 11:05:59;;;;;;;7.50;1.90;;;;;;;27.45;37.76;102256.06;10488692;28;20128;-69
2022/08/31 11:10:59;;;;;;;1.98;1.77;;;;;;;27.78;38.07;102247.16;10486733;28;20039;-69
2022/08/31 11:16:16;;;;;;;2.20;1.77;;;;;;;27.96;35.09;102253.25;10485729;28;20507;-69
2022/08/31 11:21:54;;;;;;;1.73;1.65;;;;;;;27.33;38.44;102253.56;10504506;28;20517;-69
2022/08/31 11:27:27;;;;;;;2.00;1.90;;;;;;;28.69;37.54;102266.66;10504217;28;20150;-71
2022/08/31 11:32:35;;;;;;;1.17;1.10;;;;;;;28.69;36.58;102259.13;10489083;28;20033;-69
2022/08/31 11:37:58;;;;;;;2.70;2.00;;;;;;;27.81;36.18;102231.84;10502152;28;20024;-69
2022/08/31 11:43:00;;;;;;;2.38;1.98;;;;;;;28.08;37.27;102231.50;10504769;28;20029;-69
2022/08/31 11:48:00;;;;;;;4.45;2.08;;;;;;;28.94;36.82;102221.88;10519152;28;20067;-69
2022/08/31 11:53:18;;;;;;;2.75;1.55;;;;;;;28.79;36.43;102219.19;10501530;28;20036;-68
2022/08/31 11:58:24;;;;;;;2.03;1.50;;;;;;;29.27;34.10;102211.03;10484492;28;20032;-68
2022/08/31 12:03:33;;;;;;;2.92;1.60;;;;;;;28.06;34.10;102228.16;10501672;28;20058;-68
2022/08/31 12:08:45;;;;;;;1.60;1.50;;;;;;;27.22;35.42;102201.81;10500161;28;20036;-70
2022/08/31 12:14:17;;;;;;;2.22;1.90;;;;;;;27.27;35.01;102205.44;10502009;28;20087;-69
2022/08/31 12:19:56;;;;;;;2.47;2.10;;;;;;;27.57;36.55;102204.59;10484183;28;20056;-69
2022/08/31 12:25:21;;;;;;;1.80;1.48;;;;;;;27.66;35.15;102187.28;10503898;28;20452;-67
2022/08/31 12:30:24;;;;;;;1.20;1.20;;;;;;;27.79;35.33;102201.50;10484383;28;20036;-68
2022/08/31 12:35:27;;;;;;;1.58;1.55;;;;;;;27.89;35.51;102186.72;10500884;28;20497;-68
2022/08/31 12:40:29;;;;;;;1.70;1.60;;;;;;;27.69;33.94;102189.50;10487252;28;20036;-72
2022/08/31 12:45:38;;;;;;;2.38;1.63;;;;;;;26.96;34.97;102184.25;10447370;28;20049;-67
2022/08/31 12:50:45;;;;;;;5.38;1.58;;;;;;;27.29;35.19;102169.00;10470817;28;20044;-71
2022/08/31 12:56:18;;;;;;;1.45;1.45;;;;;;;27.43;34.90;102180.38;10448136;28;20116;-65
2022/08/31 13:01:21;;;;;;;1.73;1.63;;;;;;;27.08;35.86;102165.34;10458497;28;20041;-72
2022/08/31 13:06:43;;;;;;;5.10;1.85;;;;;;;27.45;35.00;102162.31;10457973;28;20392;-65
2022/08/31 13:11:49;;;;;;;1.10;1.10;;;;;;;27.31;35.80;102158.41;10472094;28;20045;-65
2022/08/31 13:16:51;;;;;;;1.30;1.30;;;;;;;27.71;35.31;102146.38;10438895;28;20068;-69
2022/08/31 13:21:54;;;;;;;1.02;1.02;;;;;;;27.03;35.80;102138.41;10455081;28;20104;-67
2022/08/31 13:27:18;;;;;;;3.13;2.30;;;;;;;27.46;35.49;102149.22;10457455;28;20029;-69
2022/08/31 13:32:29;;;;;;;9.02;1.60;;;;;;;27.90;34.12;102146.63;10459878;28;20126;-68
2022/08/31 13:37:33;;;;;;;4.55;1.83;;;;;;;27.41;33.64;102138.94;10456775;28;20465;-72
2022/08/31 13:42:44;;;;;;;2.17;1.77;;;;;;;27.13;34.92;102132.88;10438953;28;20064;-69
2022/08/31 13:47:50;;;;;;;4.15;1.60;;;;;;;27.23;34.42;102132.03;10457069;28;20099;-71
2022/08/31 13:52:56;;;;;;;1.10;1.08;;;;;;;26.60;33.98;102136.97;10456934;28;20032;-71
2022/08/31 13:57:58;;;;;;;1.60;1.50;;;;;;;26.54;35.54;102135.31;10454257;28;20029;-69
2022/08/31 14:03:33;;;;;;;2.97;2.15;;;;;;;26.47;35.51;102118.88;10454323;28;20037;-71
2022/08/31 14:08:35;;;;;;;6.82;1.65;;;;;;;26.75;34.06;102125.06;10455373;28;20483;-68
2022/08/31 14:13:35;;;;;;;1.15;1.15;;;;;;;26.31;34.87;102133.84;10454450;28;20060;-71
2022/08/31 14:18:39;;;;;;;1.48;1.48;;;;;;;26.00;36.04;102128.19;10454009;28;20108;-65
2022/08/31 14:23:41;;;;;;;4.22;1.25;;;;;;;25.96;36.29;102119.56;10453889;28;20044;-66
2022/08/31 14:28:43;;;;;;;4.15;1.40;;;;;;;25.92;35.90;102118.44;10458990;28;20037;-68
2022/08/31 14:33:43;;;;;;;1.23;1.23;;;;;;;25.75;36.30;102129.72;10460979;28;20059;-67
2022/08/31 14:38:44;;;;;;;1.52;1.42;;;;;;;25.99;36.60;102112.63;10460929;28;20041;-69
2022/08/31 14:43:45;;;;;;;6.53;1.10;;;;;;;25.91;35.89;102111.22;10478782;28;20036;-67
2022/08/31 14:48:45;;;;;;;2.03;1.33;;;;;;;25.66;36.02;102108.31;10461941;28;20056;-67
2022/08/31 14:53:46;;;;;;;1.35;1.25;;;;;;;25.26;37.25;102102.25;10461848;28;20036;-69
2022/08/31 14:58:49;;;;;;;8.32;1.75;;;;;;;25.03;37.76;102105.38;10463291;28;20079;-69
2022/08/31 15:03:50;;;;;;;1.30;1.25;;;;;;;24.37;37.39;102103.63;10464018;28;20376;-69
2022/08/31 15:08:50;;;;;;;1.58;1.40;;;;;;;23.82;38.40;102093.59;10479230;28;20106;-71
2022/08/31 15:13:52;;;;;;;10.77;1.48;;;;;;;23.63;38.86;102108.81;10462934;28;20045;-69
2022/08/31 15:18:53;;;;;;;1.42;1.35;;;;;;;23.50;38.91;102106.44;10462065;28;20123;-69
2022/08/31 15:23:53;;;;;;;1.23;1.23;;;;;;;23.34;39.26;102113.66;10461818;28;20033;-69
2022/08/31 15:28:55;;;;;;;1.85;1.75;;;;;;;23.23;39.46;102103.53;10460573;28;20098;-68
2022/08/31 15:33:58;;;;;;;1.08;1.08;;;;;;;23.17;39.89;102105.41;10461440;28;20159;-67
2022/08/31 15:39:00;;;;;;;4.53;1.60;;;;;;;22.94;40.01;102107.25;10460009;28;20043;-68
2022/08/31 15:44:09;;;;;;;1.05;1.05;;;;;;;23.03;40.69;102104.88;10462661;28;20032;-68
2022/08/31 15:49:09;;;;;;;6.50;2.00;;;;;;;22.97;41.06;102081.03;10478265;28;20116;-68
2022/08/31 15:54:11;;;;;;;1.50;1.17;;;;;;;22.86;41.17;102093.81;10461154;28;20437;-68
2022/08/31 15:59:11;;;;;;;2.00;1.45;;;;;;;22.79;41.03;102092.31;10463717;28;20055;-68
2022/08/31 16:04:14;;;;;;;5.50;1.55;;;;;;;22.71;41.21;102088.84;10463111;28;20482;-68
2022/08/31 16:09:15;;;;;;;3.45;1.70;;;;;;;22.64;41.78;102087.34;10462467;28;20045;-70
2022/08/31 16:14:15;;;;;;;3.80;1.95;;;;;;;22.55;41.78;102083.34;10462080;28;20487;-69
2022/08/31 16:19:16;;;;;;;2.25;1.30;;;;;;;22.45;41.97;102086.75;10462016;28;20052;-69
2022/08/31 16:24:19;;;;;;;4.57;1.10;;;;;;;22.26;42.48;102078.66;10461017;28;20031;-69
2022/08/31 16:29:21;;;;;;;1.08;1.08;;;;;;;22.21;42.42;102086.03;10457932;28;20047;-68
2022/08/31 16:34:22;;;;;;;6.55;1.83;;;;;;;22.18;42.65;102079.09;10457644;28;20025;-68
2022/08/31 16:39:23;;;;;;;3.42;1.00;;;;;;;22.11;43.08;102080.28;10461389;28;20029;-69
2022/08/31 16:44:23;;;;;;;1.55;1.45;;;;;;;21.97;43.78;102068.69;10461927;28;20029;-69
2022/08/31 16:49:32;;;;;;;3.72;1.42;;;;;;;21.95;43.38;102070.84;10462154;28;20040;-69
2022/08/31 16:54:33;;;;;;;0.98;0.98;;;;;;;21.85;42.94;102079.75;10470629;28;20119;-68
2022/08/31 16:59:35;;;;;;;1.08;0.95;;;;;;;21.73;42.46;102065.16;10490199;28;20417;-69
2022/08/31 17:04:35;;;;;;;0.90;0.90;;;;;;;21.77;42.24;102077.41;10477098;28;20167;-70
2022/08/31 17:09:36;;;;;;;1.85;1.17;;;;;;;21.68;42.59;102076.09;10477630;28;20120;-69
2022/08/31 17:14:45;;;;;;;4.63;1.75;;;;;;;21.57;43.08;102086.09;10486710;28;20049;-70
2022/08/31 17:19:45;;;;;;;16.27;1.50;;;;;;;21.42;42.97;102075.53;10459449;28;20040;-68
2022/08/31 17:24:46;;;;;;;0.88;0.88;;;;;;;21.36;43.08;102076.50;10458466;28;20541;-69
2022/08/31 17:29:49;;;;;;;1.02;1.02;;;;;;;21.30;43.25;102086.53;10457842;28;20041;-69
2022/08/31 17:34:50;;;;;;;5.45;1.23;;;;;;;21.12;43.85;102078.38;10458423;28;20068;-69
2022/08/31 17:39:51;;;;;;;10.07;1.40;;;;;;;20.97;43.72;102080.81;10441036;28;20507;-69
2022/08/31 17:44:52;;;;;;;1.80;1.25;;;;;;;20.86;44.14;102088.78;10459958;28;20411;-69
2022/08/31 17:49:52;;;;;;;1.88;1.13;;;;;;;20.70;43.96;102077.63;10460835;28;20091;-69
2022/08/31 17:54:54;;;;;;;6.22;1.02;;;;;;;20.63;44.43;102089.59;10461973;28;20036;-69
2022/08/31 17:59:54;;;;;;;0.80;0.80;;;;;;;20.52;44.75;102084.91;10462982;28;20041;-69
2022/08/31 18:04:54;;;;;;;2.08;0.50;;;;;;;20.40;44.92;102089.50;10466451;28;20025;-70
2022/08/31 18:09:55;;;;;;;1.98;1.38;;;;;;;20.23;45.55;102088.47;10468733;28;20082;-69
2022/08/31 18:14:57;;;;;;;1.17;1.15;;;;;;;20.15;45.52;102097.88;10454330;28;20053;-69
2022/08/31 18:19:57;;;;;;;3.30;1.13;;;;;;;19.97;46.14;102105.13;10469998;28;20170;-69
2022/08/31 18:24:58;;;;;;;0.63;0.63;;;;;;;19.88;45.74;102100.16;10468569;28;20377;-68
2022/08/31 18:29:59;;;;;;;0.85;0.85;;;;;;;19.71;46.47;102111.75;10466206;28;20040;-69
2022/08/31 18:35:00;;;;;;;0.77;0.77;;;;;;;19.58;47.05;102117.38;10447029;28;20036;-67
2022/08/31 18:45:19;;;;;;;8.55;1.70;;;;;;;19.27;48.27;102132.91;10465711;28;20033;-72
2022/08/31 18:50:20;;;;;;;0.60;0.60;;;;;;;19.16;48.36;102133.63;10461585;28;20439;-72
2022/08/31 18:55:21;;;;;;;2.60;0.80;;;;;;;19.09;47.83;102138.34;10463440;28;20048;-72
2022/08/31 19:00:21;;;;;;;0.95;0.80;;;;;;;19.03;48.30;102147.47;10465378;28;20550;-72
2022/08/31 19:05:22;;;;;;;1.80;0.98;;;;;;;18.98;47.94;102144.53;10466111;28;20128;-70
2022/08/31 19:10:22;;;;;;;2.00;1.00;;;;;;;18.84;51.32;102148.47;10463999;28;20049;-69
2022/08/31 19:15:23;;;;;;;2.05;0.95;;;;;;;18.79;52.48;102151.84;10443948;28;20052;-71
2022/08/31 19:20:23;;;;;;;2.05;1.10;;;;;;;18.71;53.70;102149.38;10462584;28;20503;-73
2022/08/31 19:25:23;;;;;;;2.03;1.38;;;;;;;18.62;56.14;102157.00;10460853;28;20512;-69
2022/08/31 19:30:24;;;;;;;1.40;1.13;;;;;;;18.53;58.74;102158.31;10460646;28;20036;-71
2022/08/31 19:35:24;;;;;;;1.90;1.45;;;;;;;18.42;65.42;102164.53;10461234;28;20046;-71
2022/08/31 19:40:29;;;;;;;2.70;1.42;;;;;;;18.38;66.93;102160.50;10477562;28;20036;-69
2022/08/31 19:45:29;;;;;;;3.92;1.60;;;;;;;18.27;69.03;102159.31;10443859;28;20385;-67
2022/08/31 19:50:30;;;;;;;4.72;1.52;;;;;;;18.26;64.54;102160.38;10460526;28;20075;-71
2022/08/31 19:55:30;;;;;;;11.40;1.98;;;;;;;18.14;69.90;102176.66;10459190;28;20028;-70
2022/08/31 20:00:31;;;;;;;9.05;2.03;;;;;;;18.09;68.43;102179.19;10459546;28;20041;-71
2022/08/31 20:05:31;;;;;;;1.83;1.45;;;;;;;17.98;71.45;102180.72;10460960;28;20025;-70
2022/08/31 20:10:32;;;;;;;1.58;1.48;;;;;;;17.87;74.32;102187.72;10459990;28;20041;-73
2022/08/31 20:15:36;;;;;;;1.67;1.58;;;;;;;17.83;70.82;102191.91;10460548;28;20103;-70
2022/08/31 20:20:43;;;;;;;6.60;2.00;;;;;;;17.76;74.00;102187.50;10458359;28;20119;-70
2022/08/31 20:25:45;;;;;;;1.67;1.38;;;;;;;17.73;72.72;102182.44;10474973;28;20036;-71
2022/08/31 20:30:45;;;;;;;6.90;1.40;;;;;;;17.67;76.10;102193.19;10458663;28;20028;-70
2022/08/31 20:35:46;;;;;;;5.32;2.42;;;;;;;17.66;78.07;102190.69;10458661;28;20033;-70
2022/08/31 20:40:50;;;;;;;1.75;1.65;;;;;;;17.62;79.67;102176.56;10456599;28;20032;-72
2022/08/31 20:45:51;;;;;;;7.35;1.75;;;;;;;17.59;83.08;102185.22;10458301;28;20087;-71
2022/08/31 20:50:51;;;;;;;2.85;1.90;;;;;;;17.58;82.80;102189.00;10457037;28;20041;-71
2022/08/31 20:55:52;;;;;;;2.47;1.95;;;;;;;17.52;83.06;102167.13;10456788;28;20147;-69
2022/08/31 21:00:52;;;;;;;5.88;2.42;;;;;;;17.46;82.21;102167.97;10458361;28;20041;-71
2022/08/31 21:05:52;;;;;;;6.18;1.83;;;;;;;17.44;81.67;102173.63;10458382;28;20041;-71
2022/08/31 21:10:53;;;;;;;3.03;1.48;;;;;;;17.38;78.57;102178.06;10459431;28;20044;-69
2022/08/31 21:15:53;;;;;;;4.10;2.17;;;;;;;17.27;84.71;102175.97;10461064;28;20076;-71
2022/08/31 21:20:54;;;;;;;2.95;2.25;;;;;;;17.35;81.86;102173.00;10457522;28;20040;-70
2022/08/31 21:25:56;;;;;;;2.20;2.03;;;;;;;17.24;83.69;102168.19;10458437;28;20029;-72
2022/08/31 21:31:12;;;;;;;4.18;2.65;;;;;;;17.27;81.76;102170.50;10456743;28;20457;-71
2022/08/31 21:36:16;;;;;;;3.23;1.50;;;;;;;17.20;82.55;102186.91;10455967;28;20041;-71
2022/08/31 21:41:18;;;;;;;1.42;1.42;;;;;;;17.18;81.52;102179.97;10455219;28;20141;-72
2022/08/31 21:46:20;;;;;;;1.80;1.70;;;;;;;17.19;80.45;102185.22;10472181;28;20029;-72
2022/08/31 21:51:26;;;;;;;1.50;1.40;;;;;;;17.19;77.72;102195.31;10455514;28;20086;-70
2022/08/31 21:56:29;;;;;;;1.27;1.23;;;;;;;17.11;78.57;102193.66;10455213;28;20122;-70
2022/08/31 22:01:30;;;;;;;2.72;1.77;;;;;;;16.99;80.25;102187.09;10455562;28;20025;-70
2022/08/31 22:06:30;;;;;;;2.47;1.27;;;;;;;16.98;80.11;102190.91;10454399;28;20098;-70
2022/08/31 22:11:36;;;;;;;1.92;1.83;;;;;;;16.98;78.86;102195.53;10456044;28;20062;-71
2022/08/31 22:16:38;;;;;;;1.65;1.55;;;;;;;16.88;78.92;102184.97;10455333;28;20550;-69
2022/08/31 22:21:41;;;;;;;2.45;1.52;;;;;;;16.79;79.62;102200.75;10454624;28;20163;-70
2022/08/31 22:26:44;;;;;;;3.60;2.03;;;;;;;16.79;78.57;102195.28;10470502;28;20033;-70
2022/08/31 22:31:44;;;;;;;1.50;1.40;;;;;;;16.65;80.01;102197.09;10471345;28;20404;-69
2022/08/31 22:36:46;;;;;;;4.53;2.13;;;;;;;16.60;79.29;102205.09;10453592;28;20044;-70
2022/08/31 22:41:47;;;;;;;1.55;1.45;;;;;;;16.47;79.43;102197.69;10438133;28;20436;-70
2022/08/31 22:46:47;;;;;;;3.60;1.75;;;;;;;16.40;81.41;102212.38;10455630;28;20041;-70
2022/08/31 22:51:47;;;;;;;2.15;1.80;;;;;;;16.38;79.10;102206.28;10460105;28;20337;-70
2022/08/31 22:56:48;;;;;;;3.15;1.38;;;;;;;16.32;79.39;102205.19;10462868;28;20037;-70
2022/08/31 23:01:53;;;;;;;2.22;2.03;;;;;;;16.23;79.26;102200.94;10461143;28;20393;-71
2022/08/31 23:06:56;;;;;;;2.20;2.00;;;;;;;16.11;81.00;102197.09;10462741;28;20114;-71
2022/08/31 23:11:57;;;;;;;1.85;1.08;;;;;;;16.02;78.83;102197.28;10461938;28;20350;-70
2022/08/31 23:16:59;;;;;;;1.80;1.70;;;;;;;15.92;80.94;102195.94;10461278;28;20041;-71
2022/08/31 23:22:00;;;;;;;1.00;1.00;;;;;;;15.86;80.54;102183.97;10462580;28;20106;-71
2022/08/31 23:27:01;;;;;;;3.03;2.08;;;;;;;15.78;80.86;102189.56;10460118;28;20059;-70
2022/08/31 23:32:03;;;;;;;3.05;1.80;;;;;;;15.68;80.95;102181.72;10461953;28;20032;-71
2022/08/31 23:37:07;;;;;;;2.03;1.80;;;;;;;15.56;80.07;102172.38;10462951;28;20029;-70